sensor_id;sensor_type;location;lat;lon;timestamp;pressure;altitude;pressure_sealevel;temperature;humidity
13734;BME280;43298;52.560;13.508;2023-05-19T00:01:41;102122.41;;;9.48;100.00
13734;BME280;43298;52.560;13.508;2023-05-19T00:04:09;102119.06;;;9.40;100.00
13734;BME280;43298;52.560;13.508;2023-05-19T00:06:37;102125.97;;;9.39;100.00
13734;BME280;43298;52.560;13.508;2023-05-19T00:09:05;102125.16;;;9.36;100.00
13734;BME280;43298;52.560;13.508;2023-05-19T00:11:33;102134.69;;;9.32;100.00
13734;BME280;43298;52.560;13.508;2023-05-19T00:14:03;102133.06;;;9.25;100.00
13734;BME280;43298;52.560;13.508;2023-05-19T00:16:30;102131.41;;;9.19;100.00
13734;BME280;43298;52.560;13.508;2023-05-19T00:19:01;102129.75;;;9.15;100.00
13734;BME280;43298;52.560;13.508;2023-05-19T00:21:28;102136.69;;;9.10;100.00
13734;BME280;43298;52.560;13.508;2023-05-19T00:23:54;102131.56;;;9.07;100.00
13734;BME280;43298;52.560;13.508;2023-05-19T00:26:20;102132.44;;;9.06;100.00
13734;BME280;43298;52.560;13.508;2023-05-19T00:28:50;102136.84;;;9.00;100.00
13734;BME280;43298;52.560;13.508;2023-05-19T00:31:16;102123.94;;;8.98;100.00
13734;BME280;43298;52.560;13.508;2023-05-19T00:33:42;102123.09;;;8.96;100.00
13734;BME280;43298;52.560;13.508;2023-05-19T00:36:08;102121.41;;;8.95;100.00
13734;BME280;43298;52.560;13.508;2023-05-19T00:38:35;102124.06;;;8.88;100.00
13734;BME280;43298;52.560;13.508;2023-05-19T00:41:03;102124.94;;;8.87;100.00
13734;BME280;43298;52.560;13.508;2023-05-19T00:43:30;102122.41;;;8.85;100.00
13734;BME280;43298;52.560;13.508;2023-05-19T00:45:56;102117.09;;;8.97;100.00
13734;BME280;43298;52.560;13.508;2023-05-19T00:48:24;102119.75;;;8.91;100.00
13734;BME280;43298;52.560;13.508;2023-05-19T00:50:50;102119.78;;;8.88;100.00
13734;BME280;43298;52.560;13.508;2023-05-19T00:53:17;102130.03;;;8.93;100.00
13734;BME280;43298;52.560;13.508;2023-05-19T00:55:44;102125.72;;;8.93;100.00
13734;BME280;43298;52.560;13.508;2023-05-19T00:58:11;102123.25;;;8.86;100.00
13734;BME280;43298;52.560;13.508;2023-05-19T01:00:38;102124.94;;;8.88;100.00
13734;BME280;43298;52.560;13.508;2023-05-19T01:03:05;102120.72;;;8.81;100.00
13734;BME280;43298;52.560;13.508;2023-05-19T01:05:40;102123.25;;;8.86;100.00
13734;BME280;43298;52.560;13.508;2023-05-19T01:08:07;102124.16;;;8.82;100.00
13734;BME280;43298;52.560;13.508;2023-05-19T01:10:33;102122.44;;;8.81;100.00
13734;BME280;43298;52.560;13.508;2023-05-19T01:13:01;102126.81;;;8.74;100.00
13734;BME280;43298;52.560;13.508;2023-05-19T01:15:28;102126.03;;;8.69;100.00
13734;BME280;43298;52.560;13.508;2023-05-19T01:18:14;102125.16;;;8.70;100.00
13734;BME280;43298;52.560;13.508;2023-05-19T01:20:47;102123.50;;;8.65;100.00
13734;BME280;43298;52.560;13.508;2023-05-19T01:23:46;102117.59;;;8.58;100.00
13734;BME280;43298;52.560;13.508;2023-05-19T01:32:40;102115.94;;;8.51;100.00
13734;BME280;43298;52.560;13.508;2023-05-19T01:35:08;102125.34;;;8.55;100.00
13734;BME280;43298;52.560;13.508;2023-05-19T01:37:36;102126.31;;;8.45;100.00
13734;BME280;43298;52.560;13.508;2023-05-19T01:40:05;102120.31;;;8.42;100.00
13734;BME280;43298;52.560;13.508;2023-05-19T01:42:31;102119.66;;;8.26;100.00
13734;BME280;43298;52.560;13.508;2023-05-19T01:45:06;102120.50;;;8.21;100.00
13734;BME280;43298;52.560;13.508;2023-05-19T01:47:38;102124.03;;;8.14;100.00
13734;BME280;43298;52.560;13.508;2023-05-19T01:50:05;102120.59;;;8.13;100.00
13734;BME280;43298;52.560;13.508;2023-05-19T01:52:31;102117.16;;;8.11;100.00
13734;BME280;43298;52.560;13.508;2023-05-19T01:54:57;102114.59;;;8.10;100.00
13734;BME280;43298;52.560;13.508;2023-05-19T01:57:55;102117.22;;;8.07;100.00
13734;BME280;43298;52.560;13.508;2023-05-19T02:04:12;102116.50;;;7.91;100.00
13734;BME280;43298;52.560;13.508;2023-05-19T02:07:12;102124.25;;;7.90;100.00
13734;BME280;43298;52.560;13.508;2023-05-19T02:10:04;102122.59;;;7.81;100.00
13734;BME280;43298;52.560;13.508;2023-05-19T02:12:36;102114.78;;;7.89;100.00
13734;BME280;43298;52.560;13.508;2023-05-19T02:15:24;102120.75;;;7.98;100.00
13734;BME280;43298;52.560;13.508;2023-05-19T02:17:52;102115.59;;;7.97;100.00
13734;BME280;43298;52.560;13.508;2023-05-19T02:20:20;102122.50;;;7.90;100.00
13734;BME280;43298;52.560;13.508;2023-05-19T02:22:49;102117.44;;;7.84;100.00
13734;BME280;43298;52.560;13.508;2023-05-19T02:25:15;102125.19;;;7.81;100.00
13734;BME280;43298;52.560;13.508;2023-05-19T02:27:41;102120.91;;;7.77;100.00
13734;BME280;43298;52.560;13.508;2023-05-19T02:30:09;102127.72;;;7.84;100.00
13734;BME280;43298;52.560;13.508;2023-05-19T02:32:35;102126.81;;;7.90;100.00
13734;BME280;43298;52.560;13.508;2023-05-19T02:35:02;102121.56;;;8.00;100.00
13734;BME280;43298;52.560;13.508;2023-05-19T02:37:30;102117.16;;;8.11;100.00
13734;BME280;43298;52.560;13.508;2023-05-19T02:39:58;102117.91;;;8.21;100.00
13734;BME280;43298;52.560;13.508;2023-05-19T02:42:25;102111.94;;;8.20;100.00
13734;BME280;43298;52.560;13.508;2023-05-19T02:44:52;102111.06;;;8.20;100.00
13734;BME280;43298;52.560;13.508;2023-05-19T02:47:19;102113.66;;;8.20;100.00
13734;BME280;43298;52.560;13.508;2023-05-19T02:49:45;102113.66;;;8.17;100.00
13734;BME280;43298;52.560;13.508;2023-05-19T02:52:11;102111.97;;;8.16;100.00
13734;BME280;43298;52.560;13.508;2023-05-19T02:54:36;102117.13;;;8.22;100.00
13734;BME280;43298;52.560;13.508;2023-05-19T02:57:02;102111.06;;;8.24;100.00
13734;BME280;43298;52.560;13.508;2023-05-19T02:59:28;102111.84;;;8.31;100.00
13734;BME280;43298;52.560;13.508;2023-05-19T03:01:58;102102.41;;;8.31;100.00
13734;BME280;43298;52.560;13.508;2023-05-19T03:04:24;102107.59;;;8.27;100.00
13734;BME280;43298;52.560;13.508;2023-05-19T03:06:50;102115.28;;;8.33;100.00
13734;BME280;43298;52.560;13.508;2023-05-19T03:09:16;102117.84;;;8.33;100.00
13734;BME280;43298;52.560;13.508;2023-05-19T03:11:43;102115.28;;;8.31;100.00
13734;BME280;43298;52.560;13.508;2023-05-19T03:14:09;102104.06;;;8.37;100.00
13734;BME280;43298;52.560;13.508;2023-05-19T03:16:36;102100.69;;;8.32;100.00
13734;BME280;43298;52.560;13.508;2023-05-19T03:19:02;102100.75;;;8.24;100.00
13734;BME280;43298;52.560;13.508;2023-05-19T03:21:28;102105.91;;;8.26;100.00
13734;BME280;43298;52.560;13.508;2023-05-19T03:23:54;102111.06;;;8.26;100.00
13734;BME280;43298;52.560;13.508;2023-05-19T03:26:20;102101.53;;;8.32;100.00
13734;BME280;43298;52.560;13.508;2023-05-19T03:28:47;102113.50;;;8.36;100.00
13734;BME280;43298;52.560;13.508;2023-05-19T03:31:13;102114.44;;;8.28;100.00
13734;BME280;43298;52.560;13.508;2023-05-19T03:33:39;102111.88;;;8.28;100.00
13734;BME280;43298;52.560;13.508;2023-05-19T03:36:05;102110.13;;;8.33;100.00
13734;BME280;43298;52.560;13.508;2023-05-19T03:38:31;102105.84;;;8.32;100.00
13734;BME280;43298;52.560;13.508;2023-05-19T03:40:57;102100.72;;;8.30;100.00
13734;BME280;43298;52.560;13.508;2023-05-19T03:43:23;102111.00;;;8.30;100.00
13734;BME280;43298;52.560;13.508;2023-05-19T03:45:48;102109.28;;;8.29;100.00
13734;BME280;43298;52.560;13.508;2023-05-19T03:48:14;102111.91;;;8.26;100.00
13734;BME280;43298;52.560;13.508;2023-05-19T03:50:41;102106.63;;;8.38;100.00
13734;BME280;43298;52.560;13.508;2023-05-19T03:53:09;102113.47;;;8.41;100.00
13734;BME280;43298;52.560;13.508;2023-05-19T03:55:35;102113.44;;;8.42;100.00
13734;BME280;43298;52.560;13.508;2023-05-19T03:58:02;102107.34;;;8.51;100.00
13734;BME280;43298;52.560;13.508;2023-05-19T04:00:28;102105.59;;;8.53;100.00
13734;BME280;43298;52.560;13.508;2023-05-19T04:02:53;102113.25;;;8.60;100.00
13734;BME280;43298;52.560;13.508;2023-05-19T04:05:19;102111.50;;;8.64;100.00
13734;BME280;43298;52.560;13.508;2023-05-19T04:07:45;102109.66;;;8.73;100.00
13734;BME280;43298;52.560;13.508;2023-05-19T04:10:11;102109.50;;;8.85;100.00
13734;BME280;43298;52.560;13.508;2023-05-19T04:12:37;102107.66;;;8.93;100.00
13734;BME280;43298;52.560;13.508;2023-05-19T04:15:04;102112.75;;;8.99;100.00
13734;BME280;43298;52.560;13.508;2023-05-19T04:17:32;102112.66;;;9.08;100.00
13734;BME280;43298;52.560;13.508;2023-05-19T04:19:58;102112.63;;;9.10;100.00
13734;BME280;43298;52.560;13.508;2023-05-19T04:22:25;102111.63;;;9.17;100.00
13734;BME280;43298;52.560;13.508;2023-05-19T04:24:50;102105.47;;;9.28;100.00
13734;BME280;43298;52.560;13.508;2023-05-19T04:27:17;102105.50;;;9.24;100.00
13734;BME280;43298;52.560;13.508;2023-05-19T04:29:44;102108.97;;;9.24;100.00
13734;BME280;43298;52.560;13.508;2023-05-19T04:32:10;102110.50;;;9.38;100.00
13734;BME280;43298;52.560;13.508;2023-05-19T04:34:36;102107.97;;;9.35;100.00
13734;BME280;43298;52.560;13.508;2023-05-19T04:37:08;102122.47;;;9.43;100.00
13734;BME280;43298;52.560;13.508;2023-05-19T04:39:35;102119.03;;;9.43;100.00
13734;BME280;43298;52.560;13.508;2023-05-19T04:42:03;102120.50;;;9.59;100.00
13734;BME280;43298;52.560;13.508;2023-05-19T04:44:30;102125.63;;;9.62;100.00
13734;BME280;43298;52.560;13.508;2023-05-19T04:46:56;102118.69;;;9.64;100.00
13734;BME280;43298;52.560;13.508;2023-05-19T04:49:22;102119.56;;;9.64;100.00
13734;BME280;43298;52.560;13.508;2023-05-19T04:51:48;102124.69;;;9.66;100.00
13734;BME280;43298;52.560;13.508;2023-05-19T04:54:16;102123.72;;;9.73;100.00
13734;BME280;43298;52.560;13.508;2023-05-19T04:56:41;102133.13;;;9.77;100.00
13734;BME280;43298;52.560;13.508;2023-05-19T04:59:08;102126.16;;;9.80;100.00
13734;BME280;43298;52.560;13.508;2023-05-19T05:01:35;102121.00;;;9.80;100.00
13734;BME280;43298;52.560;13.508;2023-05-19T05:04:05;102119.25;;;9.84;100.00
13734;BME280;43298;52.560;13.508;2023-05-19T05:06:32;102119.09;;;9.91;100.00
13734;BME280;43298;52.560;13.508;2023-05-19T05:08:58;102123.25;;;10.00;100.00
13734;BME280;43298;52.560;13.508;2023-05-19T05:11:28;102114.50;;;10.10;100.00
13734;BME280;43298;52.560;13.508;2023-05-19T05:13:55;102122.09;;;10.19;100.00
13734;BME280;43298;52.560;13.508;2023-05-19T05:16:23;102120.38;;;10.18;100.00
13734;BME280;43298;52.560;13.508;2023-05-19T05:18:49;102117.66;;;10.27;100.00
13734;BME280;43298;52.560;13.508;2023-05-19T05:21:15;102124.38;;;10.35;100.00
13734;BME280;43298;52.560;13.508;2023-05-19T05:23:41;102124.88;;;10.54;100.00
13734;BME280;43298;52.560;13.508;2023-05-19T05:26:17;102128.19;;;10.62;100.00
13734;BME280;43298;52.560;13.508;2023-05-19T05:28:44;102123.66;;;10.71;100.00
13734;BME280;43298;52.560;13.508;2023-05-19T05:31:10;102120.09;;;10.77;100.00
13734;BME280;43298;52.560;13.508;2023-05-19T05:33:37;102118.09;;;10.91;100.00
13734;BME280;43298;52.560;13.508;2023-05-19T05:36:03;102122.94;;;11.06;100.00
13734;BME280;43298;52.560;13.508;2023-05-19T05:38:30;102124.41;;;11.17;100.00
13734;BME280;43298;52.560;13.508;2023-05-19T05:40:55;102121.47;;;11.32;100.00
13734;BME280;43298;52.560;13.508;2023-05-19T05:43:21;102130.56;;;11.50;100.00
13734;BME280;43298;52.560;13.508;2023-05-19T05:45:47;102129.50;;;11.58;100.00
13734;BME280;43298;52.560;13.508;2023-05-19T05:48:13;102133.19;;;11.48;100.00
13734;BME280;43298;52.560;13.508;2023-05-19T05:50:42;102120.75;;;11.64;100.00
13734;BME280;43298;52.560;13.508;2023-05-19T05:53:09;102130.88;;;11.74;100.00
13734;BME280;43298;52.560;13.508;2023-05-19T05:55:42;102133.38;;;11.79;100.00
13734;BME280;43298;52.560;13.508;2023-05-19T05:58:08;102130.88;;;12.09;100.00
13734;BME280;43298;52.560;13.508;2023-05-19T06:00:36;102135.22;;;12.07;100.00
13734;BME280;43298;52.560;13.508;2023-05-19T06:03:02;102132.47;;;12.13;100.00
13734;BME280;43298;52.560;13.508;2023-05-19T06:05:29;102139.19;;;12.54;100.00
13734;BME280;43298;52.560;13.508;2023-05-19T06:07:54;102139.09;;;12.88;100.00
13734;BME280;43298;52.560;13.508;2023-05-19T06:10:20;102134.94;;;13.11;100.00
13734;BME280;43298;52.560;13.508;2023-05-19T06:12:46;102138.94;;;12.92;100.00
13734;BME280;43298;52.560;13.508;2023-05-19T06:15:12;102136.25;;;12.95;100.00
13734;BME280;43298;52.560;13.508;2023-05-19T06:17:38;102133.25;;;13.65;100.00
13734;BME280;43298;52.560;13.508;2023-05-19T06:20:04;102139.22;;;14.19;100.00
13734;BME280;43298;52.560;13.508;2023-05-19T06:22:31;102138.78;;;14.57;100.00
13734;BME280;43298;52.560;13.508;2023-05-19T06:24:57;102129.69;;;15.13;100.00
13734;BME280;43298;52.560;13.508;2023-05-19T06:27:23;102127.19;;;15.34;100.00
13734;BME280;43298;52.560;13.508;2023-05-19T06:29:48;102119.31;;;15.78;100.00
13734;BME280;43298;52.560;13.508;2023-05-19T06:32:14;102127.31;;;15.74;100.00
13734;BME280;43298;52.560;13.508;2023-05-19T06:34:40;102128.97;;;15.55;100.00
13734;BME280;43298;52.560;13.508;2023-05-19T06:37:06;102126.22;;;15.15;100.00
13734;BME280;43298;52.560;13.508;2023-05-19T06:39:32;102127.09;;;15.13;100.00
13734;BME280;43298;52.560;13.508;2023-05-19T06:41:57;102121.50;;;15.24;100.00
13734;BME280;43298;52.560;13.508;2023-05-19T06:44:23;102123.81;;;15.08;100.00
13734;BME280;43298;52.560;13.508;2023-05-19T06:46:49;102128.09;;;14.88;100.00
13734;BME280;43298;52.560;13.508;2023-05-19T06:49:15;102118.38;;;15.59;100.00
13734;BME280;43298;52.560;13.508;2023-05-19T06:51:41;102123.66;;;15.35;100.00
13734;BME280;43298;52.560;13.508;2023-05-19T06:54:06;102127.22;;;16.17;100.00
13734;BME280;43298;52.560;13.508;2023-05-19T06:56:35;102130.38;;;16.05;100.00
13734;BME280;43298;52.560;13.508;2023-05-19T06:59:01;102127.81;;;15.83;100.00
13734;BME280;43298;52.560;13.508;2023-05-19T07:01:27;102128.53;;;15.87;100.00
13734;BME280;43298;52.560;13.508;2023-05-19T07:03:54;102123.28;;;16.08;100.00
13734;BME280;43298;52.560;13.508;2023-05-19T07:06:20;102125.22;;;16.43;100.00
13734;BME280;43298;52.560;13.508;2023-05-19T07:08:46;102136.91;;;15.52;100.00
13734;BME280;43298;52.560;13.508;2023-05-19T07:11:11;102128.38;;;15.48;100.00
13734;BME280;43298;52.560;13.508;2023-05-19T07:13:37;102122.53;;;15.42;100.00
13734;BME280;43298;52.560;13.508;2023-05-19T07:16:03;102123.56;;;15.81;100.00
13734;BME280;43298;52.560;13.508;2023-05-19T07:18:29;102130.84;;;16.34;100.00
13734;BME280;43298;52.560;13.508;2023-05-19T07:20:57;102123.63;;;17.16;99.90
13734;BME280;43298;52.560;13.508;2023-05-19T07:23:23;102131.31;;;16.82;97.79
13734;BME280;43298;52.560;13.508;2023-05-19T07:25:54;102130.91;;;16.91;96.65
13734;BME280;43298;52.560;13.508;2023-05-19T07:28:20;102135.69;;;17.00;96.12
13734;BME280;43298;52.560;13.508;2023-05-19T07:30:46;102131.69;;;17.49;96.20
13734;BME280;43298;52.560;13.508;2023-05-19T07:33:12;102129.09;;;18.34;92.06
13734;BME280;43298;52.560;13.508;2023-05-19T07:35:38;102125.00;;;18.29;91.47
13734;BME280;43298;52.560;13.508;2023-05-19T07:38:04;102123.84;;;17.66;93.02
13734;BME280;43298;52.560;13.508;2023-05-19T07:40:31;102130.00;;;17.65;91.29
13734;BME280;43298;52.560;13.508;2023-05-19T07:42:57;102122.47;;;17.76;91.01
13734;BME280;43298;52.560;13.508;2023-05-19T07:45:23;102119.84;;;18.44;87.44
13734;BME280;43298;52.560;13.508;2023-05-19T07:47:49;102121.56;;;18.78;87.56
13734;BME280;43298;52.560;13.508;2023-05-19T07:50:14;102117.78;;;18.00;86.95
13734;BME280;43298;52.560;13.508;2023-05-19T07:52:40;102116.03;;;18.17;89.92
13734;BME280;43298;52.560;13.508;2023-05-19T07:55:07;102119.13;;;18.90;87.82
13734;BME280;43298;52.560;13.508;2023-05-19T07:57:32;102110.28;;;18.60;85.59
13734;BME280;43298;52.560;13.508;2023-05-19T07:59:58;102115.78;;;19.04;85.95
13734;BME280;43298;52.560;13.508;2023-05-19T08:02:24;102108.81;;;19.18;80.38
13734;BME280;43298;52.560;13.508;2023-05-19T08:04:50;102104.44;;;18.55;82.31
13734;BME280;43298;52.560;13.508;2023-05-19T08:07:16;102119.06;;;19.07;84.23
13734;BME280;43298;52.560;13.508;2023-05-19T08:09:42;102112.72;;;19.11;85.02
13734;BME280;43298;52.560;13.508;2023-05-19T08:12:08;102116.75;;;19.01;83.98
13734;BME280;43298;52.560;13.508;2023-05-19T08:14:33;102111.91;;;19.71;84.62
13734;BME280;43298;52.560;13.508;2023-05-19T08:16:59;102105.44;;;19.47;80.98
13734;BME280;43298;52.560;13.508;2023-05-19T08:19:25;102111.22;;;19.54;80.36
13734;BME280;43298;52.560;13.508;2023-05-19T08:21:51;102105.16;;;19.67;80.01
13734;BME280;43298;52.560;13.508;2023-05-19T08:24:17;102110.94;;;20.17;77.51
13734;BME280;43298;52.560;13.508;2023-05-19T08:26:43;102121.13;;;19.78;77.26
13734;BME280;43298;52.560;13.508;2023-05-19T08:29:09;102116.97;;;20.19;75.83
13734;BME280;43298;52.560;13.508;2023-05-19T08:31:34;102116.91;;;20.63;76.08
13734;BME280;43298;52.560;13.508;2023-05-19T08:34:00;102109.47;;;20.84;74.14
13734;BME280;43298;52.560;13.508;2023-05-19T08:36:26;102114.56;;;21.27;73.40
13734;BME280;43298;52.560;13.508;2023-05-19T08:38:52;102116.47;;;21.25;71.96
13734;BME280;43298;52.560;13.508;2023-05-19T08:41:17;102110.91;;;20.75;71.41
13734;BME280;43298;52.560;13.508;2023-05-19T08:43:43;102118.38;;;19.50;73.47
13734;BME280;43298;52.560;13.508;2023-05-19T08:46:12;102116.31;;;20.00;71.45
13734;BME280;43298;52.560;13.508;2023-05-19T08:48:42;102116.16;;;20.47;70.64
13734;BME280;43298;52.560;13.508;2023-05-19T08:51:32;102106.09;;;21.10;70.07
13734;BME280;43298;52.560;13.508;2023-05-19T08:54:14;102104.31;;;19.96;69.64
13734;BME280;43298;52.560;13.508;2023-05-19T08:56:45;102105.59;;;19.89;70.60
13734;BME280;43298;52.560;13.508;2023-05-19T08:59:12;102094.84;;;20.51;68.45
13734;BME280;43298;52.560;13.508;2023-05-19T09:01:42;102102.13;;;20.89;69.65
13734;BME280;43298;52.560;13.508;2023-05-19T09:04:09;102091.28;;;20.95;67.31
13734;BME280;43298;52.560;13.508;2023-05-19T09:06:36;102096.13;;;20.73;67.23
13734;BME280;43298;52.560;13.508;2023-05-19T09:09:05;102092.88;;;20.55;65.01
13734;BME280;43298;52.560;13.508;2023-05-19T09:11:33;102089.59;;;20.51;63.79
13734;BME280;43298;52.560;13.508;2023-05-19T09:14:03;102080.25;;;21.02;62.93
13734;BME280;43298;52.560;13.508;2023-05-19T09:16:29;102077.47;;;21.18;63.60
13734;BME280;43298;52.560;13.508;2023-05-19T09:18:56;102080.88;;;21.73;61.16
13734;BME280;43298;52.560;13.508;2023-05-19T09:21:29;102075.75;;;22.34;62.71
13734;BME280;43298;52.560;13.508;2023-05-19T09:23:57;102072.28;;;22.21;61.97
13734;BME280;43298;52.560;13.508;2023-05-19T09:26:24;102067.41;;;21.24;64.33
13734;BME280;43298;52.560;13.508;2023-05-19T09:28:49;102071.72;;;20.14;66.51
13734;BME280;43298;52.560;13.508;2023-05-19T09:31:16;102070.22;;;20.95;64.52
13734;BME280;43298;52.560;13.508;2023-05-19T09:33:42;102060.44;;;20.83;63.66
13734;BME280;43298;52.560;13.508;2023-05-19T09:36:08;102068.09;;;19.87;65.06
13734;BME280;43298;52.560;13.508;2023-05-19T09:38:36;102074.97;;;20.04;65.74
13734;BME280;43298;52.560;13.508;2023-05-19T09:41:05;102074.34;;;19.85;65.69
13734;BME280;43298;52.560;13.508;2023-05-19T09:43:32;102077.28;;;20.52;64.67
13734;BME280;43298;52.560;13.508;2023-05-19T09:46:07;102071.56;;;20.31;64.06
13734;BME280;43298;52.560;13.508;2023-05-19T09:48:34;102068.50;;;20.09;66.46
13734;BME280;43298;52.560;13.508;2023-05-19T09:51:02;102066.22;;;19.89;67.64
13734;BME280;43298;52.560;13.508;2023-05-19T09:53:29;102065.09;;;20.51;64.66
13734;BME280;43298;52.560;13.508;2023-05-19T09:55:56;102060.00;;;20.62;63.78
13734;BME280;43298;52.560;13.508;2023-05-19T09:58:22;102060.72;;;19.64;65.21
13734;BME280;43298;52.560;13.508;2023-05-19T10:00:50;102069.03;;;20.00;64.77
13734;BME280;43298;52.560;13.508;2023-05-19T10:03:16;102065.47;;;19.58;64.99
13734;BME280;43298;52.560;13.508;2023-05-19T10:05:43;102056.81;;;19.85;64.89
13734;BME280;43298;52.560;13.508;2023-05-19T10:08:11;102050.78;;;19.24;64.89
13734;BME280;43298;52.560;13.508;2023-05-19T10:10:37;102047.97;;;19.72;65.93
13734;BME280;43298;52.560;13.508;2023-05-19T10:13:04;102038.63;;;20.54;65.15
13734;BME280;43298;52.560;13.508;2023-05-19T10:15:30;102042.84;;;20.56;62.93
13734;BME280;43298;52.560;13.508;2023-05-19T10:17:57;102037.81;;;21.47;61.46
13734;BME280;43298;52.560;13.508;2023-05-19T10:20:25;102036.03;;;21.48;61.67
13734;BME280;43298;52.560;13.508;2023-05-19T10:22:51;102038.38;;;20.01;61.53
13734;BME280;43298;52.560;13.508;2023-05-19T10:25:17;102042.03;;;20.83;61.42
13734;BME280;43298;52.560;13.508;2023-05-19T10:27:56;102047.63;;;20.91;60.01
13734;BME280;43298;52.560;13.508;2023-05-19T10:30:29;102041.19;;;20.82;60.89
13734;BME280;43298;52.560;13.508;2023-05-19T10:32:59;102046.22;;;20.30;61.86
13734;BME280;43298;52.560;13.508;2023-05-19T10:38:44;102038.88;;;19.34;63.90
13734;BME280;43298;52.560;13.508;2023-05-19T10:47:34;102026.44;;;20.25;63.47
13734;BME280;43298;52.560;13.508;2023-05-19T10:50:00;102033.63;;;20.21;62.18
13734;BME280;43298;52.560;13.508;2023-05-19T10:52:26;102032.44;;;19.97;62.83
13734;BME280;43298;52.560;13.508;2023-05-19T10:54:54;102033.28;;;19.54;63.79
13734;BME280;43298;52.560;13.508;2023-05-19T10:57:27;102033.00;;;19.45;64.89
13734;BME280;43298;52.560;13.508;2023-05-19T10:59:55;102028.22;;;19.51;64.66
13734;BME280;43298;52.560;13.508;2023-05-19T11:02:48;102022.50;;;19.88;63.11
13734;BME280;43298;52.560;13.508;2023-05-19T11:05:28;102031.13;;;19.90;62.29
13734;BME280;43298;52.560;13.508;2023-05-19T11:07:57;102026.56;;;19.94;64.32
13734;BME280;43298;52.560;13.508;2023-05-19T11:10:29;102019.25;;;19.55;63.36
13734;BME280;43298;52.560;13.508;2023-05-19T11:12:56;102022.00;;;19.82;62.22
13734;BME280;43298;52.560;13.508;2023-05-19T11:15:25;102022.44;;;19.90;62.56
13734;BME280;43298;52.560;13.508;2023-05-19T11:17:54;102016.50;;;20.00;61.48
13734;BME280;43298;52.560;13.508;2023-05-19T11:20:24;102023.03;;;20.23;60.22
13734;BME280;43298;52.560;13.508;2023-05-19T11:23:14;102019.44;;;19.52;61.19
13734;BME280;43298;52.560;13.508;2023-05-19T11:25:50;102022.97;;;19.51;62.67
13734;BME280;43298;52.560;13.508;2023-05-19T11:28:20;102028.28;;;19.20;63.00
13734;BME280;43298;52.560;13.508;2023-05-19T11:30:52;102019.78;;;19.76;64.10
13734;BME280;43298;52.560;13.508;2023-05-19T11:33:19;102004.03;;;19.90;62.82
13734;BME280;43298;52.560;13.508;2023-05-19T11:35:47;102008.72;;;20.69;60.96
13734;BME280;43298;52.560;13.508;2023-05-19T11:38:17;102004.28;;;21.10;60.83
13734;BME280;43298;52.560;13.508;2023-05-19T11:40:43;102004.97;;;21.65;59.14
13734;BME280;43298;52.560;13.508;2023-05-19T11:43:09;102006.59;;;21.29;58.16
13734;BME280;43298;52.560;13.508;2023-05-19T11:45:35;101999.84;;;21.25;59.15
13734;BME280;43298;52.560;13.508;2023-05-19T11:48:01;101988.13;;;21.16;56.77
13734;BME280;43298;52.560;13.508;2023-05-19T11:50:27;101995.19;;;21.16;58.41
13734;BME280;43298;52.560;13.508;2023-05-19T11:52:54;101998.16;;;21.24;58.13
13734;BME280;43298;52.560;13.508;2023-05-19T11:55:20;101987.53;;;20.58;59.90
13734;BME280;43298;52.560;13.508;2023-05-19T11:58:00;101995.28;;;20.74;58.69
13734;BME280;43298;52.560;13.508;2023-05-19T12:00:27;101989.06;;;20.34;58.96
13734;BME280;43298;52.560;13.508;2023-05-19T12:02:54;101991.09;;;20.98;58.53
13734;BME280;43298;52.560;13.508;2023-05-19T12:05:22;101991.22;;;20.55;59.20
13734;BME280;43298;52.560;13.508;2023-05-19T12:07:50;102001.84;;;20.26;58.10
13734;BME280;43298;52.560;13.508;2023-05-19T12:10:27;102000.63;;;20.31;58.73
13734;BME280;43298;52.560;13.508;2023-05-19T12:12:54;101993.91;;;20.68;57.55
13734;BME280;43298;52.560;13.508;2023-05-19T12:15:21;101987.59;;;20.71;56.95
13734;BME280;43298;52.560;13.508;2023-05-19T12:17:55;101987.16;;;21.69;56.41
13734;BME280;43298;52.560;13.508;2023-05-19T12:20:22;101989.81;;;22.19;54.47
13734;BME280;43298;52.560;13.508;2023-05-19T12:22:50;101988.41;;;22.38;53.93
13734;BME280;43298;52.560;13.508;2023-05-19T12:25:16;101981.53;;;22.61;52.76
13734;BME280;43298;52.560;13.508;2023-05-19T12:27:42;101988.75;;;21.59;55.96
13734;BME280;43298;52.560;13.508;2023-05-19T12:30:10;101991.59;;;21.17;56.39
13734;BME280;43298;52.560;13.508;2023-05-19T12:32:37;101987.66;;;20.83;57.42
13734;BME280;43298;52.560;13.508;2023-05-19T12:35:04;101992.06;;;20.83;58.58
13734;BME280;43298;52.560;13.508;2023-05-19T12:37:34;101984.94;;;20.16;58.40
13734;BME280;43298;52.560;13.508;2023-05-19T12:40:02;101985.38;;;19.94;59.74
13734;BME280;43298;52.560;13.508;2023-05-19T12:42:31;101980.88;;;19.82;59.39
13734;BME280;43298;52.560;13.508;2023-05-19T12:44:59;101975.66;;;20.10;59.00
13734;BME280;43298;52.560;13.508;2023-05-19T12:47:34;101980.06;;;20.24;58.58
13734;BME280;43298;52.560;13.508;2023-05-19T12:50:07;101980.84;;;21.46;58.04
13734;BME280;43298;52.560;13.508;2023-05-19T12:52:46;101974.63;;;21.47;56.95
13734;BME280;43298;52.560;13.508;2023-05-19T12:55:13;101970.06;;;21.37;56.47
13734;BME280;43298;52.560;13.508;2023-05-19T12:57:50;101967.25;;;21.52;58.16
13734;BME280;43298;52.560;13.508;2023-05-19T13:00:24;101963.53;;;21.30;57.37
13734;BME280;43298;52.560;13.508;2023-05-19T13:03:06;101968.13;;;21.14;58.79